Polaris, Montana
Current Conditions -  °F | °C
As of 3:53 PM on Thursday 18 Dec 2014 (Local Time) from KDLN Reporting Station
Scattered Clouds Scattered Clouds  
Wind Chill: 29°   Ceiling: Unl
Heat Index: 29°   Visibility: 10mi
Dew Point: 23°   Wind: 3mph
Humidity: 78%   Direction: 290°WNW
Pressure: 30"   Gusts: NA
Location:  45.37°N, 113.12°W
Report Text: KDLN 182253Z AUTO 29003KT 10SM SCT085 SCT120 M02/M05 A3000 RMK AO2 SLP209 T10171050
Loading
Personal Weather Stations






























Interactive Weather Map New forecast layout! Learn more

10-Day Weather Forecast

Advertisements
Track Severe Weather on mobile